Time;durP1;ratioP1;P1;durP2;ratioP2;P2;SDS_P1;SDS_P2;PMS_P1;PMS_P2;Temp;Humidity;BMP_temperature;BMP_pressure;BME280_temperature;BME280_humidity;BME280_pressure;Samples;Min_cycle;Max_cycle;Signal;HPM_P1;HPM_P2
2021/04/24 00:01:11;;;;;;;11.33;6.17;;;;;;;;;;5021360;28;38627;-76
2021/04/24 00:03:37;;;;;;;14.40;6.30;;;;;;;;;;5028521;28;39472;-75
2021/04/24 00:06:04;;;;;;;14.20;5.87;;;;;;;;;;5027842;28;39765;-75
2021/04/24 00:08:30;;;;;;;13.07;6.33;;;;;;;;;;5026402;28;40313;-75
2021/04/24 00:10:57;;;;;;;9.47;5.60;;;;;;;;;;5026326;28;36367;-75
2021/04/24 00:13:23;;;;;;;13.50;6.23;;;;;;;;;;5027069;28;40737;-75
2021/04/24 00:15:49;;;;;;;15.73;6.77;;;;;;;;;;5027268;28;39986;-75
2021/04/24 00:18:16;;;;;;;12.83;6.20;;;;;;;;;;5026323;28;39920;-75
2021/04/24 00:20:43;;;;;;;13.47;6.07;;;;;;;;;;5027117;28;35785;-75
2021/04/24 00:23:09;;;;;;;14.17;7.17;;;;;;;;;;5025003;28;40427;-76
2021/04/24 00:25:36;;;;;;;14.57;5.97;;;;;;;;;;5027376;28;40364;-75
2021/04/24 00:28:02;;;;;;;10.63;5.33;;;;;;;;;;5024983;28;38750;-75
2021/04/24 00:30:29;;;;;;;8.53;5.90;;;;;;;;;;5026985;28;37202;-75
2021/04/24 00:32:55;;;;;;;11.50;6.60;;;;;;;;;;5027385;28;39749;-75
2021/04/24 00:35:22;;;;;;;16.40;6.43;;;;;;;;;;5026845;28;39632;-75
2021/04/24 00:37:50;;;;;;;13.20;6.30;;;;;;;;;;5026970;28;38853;-75
2021/04/24 00:40:17;;;;;;;12.33;6.93;;;;;;;;;;5010288;28;37673;-75
2021/04/24 00:42:43;;;;;;;14.77;6.63;;;;;;;;;;5008661;28;39101;-75
2021/04/24 00:45:11;;;;;;;12.93;6.70;;;;;;;;;;5010883;28;39547;-75
2021/04/24 00:47:37;;;;;;;13.53;6.80;;;;;;;;;;5027944;28;38061;-75
2021/04/24 00:50:05;;;;;;;18.80;7.30;;;;;;;;;;5026398;28;38124;-75
2021/04/24 00:52:31;;;;;;;14.23;7.40;;;;;;;;;;5033971;28;39096;-76
2021/04/24 00:54:58;;;;;;;15.40;7.40;;;;;;;;;;5035915;28;39624;-75
2021/04/24 00:57:24;;;;;;;14.90;7.03;;;;;;;;;;5026436;28;39353;-74
2021/04/24 00:59:50;;;;;;;17.27;7.77;;;;;;;;;;5024173;28;37526;-75
2021/04/24 01:02:18;;;;;;;14.00;7.53;;;;;;;;;;5025053;28;39367;-75
2021/04/24 01:04:44;;;;;;;16.83;7.80;;;;;;;;;;5022595;28;39102;-75
2021/04/24 01:07:11;;;;;;;12.70;7.33;;;;;;;;;;5017723;28;38757;-75
2021/04/24 01:09:38;;;;;;;15.40;8.10;;;;;;;;;;5026962;28;38243;-75
2021/04/24 01:12:04;;;;;;;15.30;7.73;;;;;;;;;;5025381;28;40460;-75
2021/04/24 01:14:31;;;;;;;20.43;8.00;;;;;;;;;;5030456;28;39042;-75
2021/04/24 01:16:57;;;;;;;13.70;8.00;;;;;;;;;;5028511;28;39523;-75
2021/04/24 01:19:25;;;;;;;17.83;8.90;;;;;;;;;;5025553;28;38554;-75
2021/04/24 01:21:52;;;;;;;12.43;7.13;;;;;;;;;;5026917;28;39103;-75
2021/04/24 01:24:19;;;;;;;18.13;8.67;;;;;;;;;;5025457;28;40575;-75
2021/04/24 01:26:47;;;;;;;16.87;9.40;;;;;;;;;;5024367;28;39882;-75
2021/04/24 01:29:13;;;;;;;18.67;9.70;;;;;;;;;;5025154;28;37343;-75
2021/04/24 01:31:39;;;;;;;20.67;10.70;;;;;;;;;;5015652;28;38622;-75
2021/04/24 01:34:07;;;;;;;15.80;9.50;;;;;;;;;;5003711;28;39786;-75
2021/04/24 01:36:34;;;;;;;18.93;9.83;;;;;;;;;;5014640;28;39737;-75
2021/04/24 01:39:00;;;;;;;21.57;10.13;;;;;;;;;;5025550;28;37654;-75
2021/04/24 01:41:26;;;;;;;17.67;10.90;;;;;;;;;;5026691;28;47327;-75
2021/04/24 01:43:54;;;;;;;18.23;10.73;;;;;;;;;;5025729;28;40806;-75
2021/04/24 01:46:20;;;;;;;21.80;9.40;;;;;;;;;;5040478;28;39675;-75
2021/04/24 01:48:47;;;;;;;22.77;11.37;;;;;;;;;;5026943;28;38250;-74
2021/04/24 01:51:13;;;;;;;21.83;9.90;;;;;;;;;;5026653;28;38923;-75
2021/04/24 01:53:40;;;;;;;20.93;10.93;;;;;;;;;;5025774;28;39183;-75
2021/04/24 01:56:07;;;;;;;19.30;10.03;;;;;;;;;;5024552;28;39904;-75
2021/04/24 01:58:34;;;;;;;21.17;10.57;;;;;;;;;;5028052;28;38343;-75
2021/04/24 02:01:02;;;;;;;17.77;10.13;;;;;;;;;;5026424;28;39098;-75
2021/04/24 02:03:29;;;;;;;23.23;10.60;;;;;;;;;;5025950;28;46841;-75
2021/04/24 02:05:55;;;;;;;22.90;10.50;;;;;;;;;;5025823;28;39333;-75
2021/04/24 02:08:24;;;;;;;18.97;10.57;;;;;;;;;;5026027;28;38771;-75
2021/04/24 02:10:52;;;;;;;22.10;10.60;;;;;;;;;;5024942;28;40951;-75
2021/04/24 02:13:19;;;;;;;28.63;13.73;;;;;;;;;;5022990;28;38962;-75
2021/04/24 02:15:46;;;;;;;18.73;11.50;;;;;;;;;;5026628;28;38398;-75
2021/04/24 02:18:12;;;;;;;21.47;11.00;;;;;;;;;;5038275;28;37484;-75
2021/04/24 02:20:40;;;;;;;20.50;10.13;;;;;;;;;;5024550;28;40828;-76
2021/04/24 02:23:06;;;;;;;22.43;11.60;;;;;;;;;;5026358;28;39686;-75
2021/04/24 02:25:33;;;;;;;21.33;11.07;;;;;;;;;;5029185;28;37488;-74
2021/04/24 02:27:59;;;;;;;23.73;11.10;;;;;;;;;;5027350;28;36409;-75
2021/04/24 02:30:26;;;;;;;21.23;11.13;;;;;;;;;;5028909;28;39546;-74
2021/04/24 02:32:52;;;;;;;25.60;11.43;;;;;;;;;;5029722;28;39767;-74
2021/04/24 02:35:22;;;;;;;22.97;11.67;;;;;;;;;;5030163;28;38450;-74
2021/04/24 02:37:49;;;;;;;34.70;12.47;;;;;;;;;;5028890;28;37410;-75
2021/04/24 02:40:18;;;;;;;23.70;11.67;;;;;;;;;;5009450;28;40064;-74
2021/04/24 02:42:44;;;;;;;24.47;12.77;;;;;;;;;;5008794;28;38969;-74
2021/04/24 02:45:12;;;;;;;25.23;12.20;;;;;;;;;;5019295;28;40400;-74
2021/04/24 02:47:39;;;;;;;25.93;13.47;;;;;;;;;;5029615;28;37102;-75
2021/04/24 02:50:06;;;;;;;28.53;12.23;;;;;;;;;;5030343;28;38859;-75
2021/04/24 02:52:33;;;;;;;28.57;12.80;;;;;;;;;;5027654;28;38899;-74
2021/04/24 02:54:59;;;;;;;25.50;11.87;;;;;;;;;;5028034;28;37514;-75
2021/04/24 02:57:25;;;;;;;25.53;12.67;;;;;;;;;;5026802;28;37245;-74
2021/04/24 02:59:52;;;;;;;25.47;12.70;;;;;;;;;;5027977;28;37694;-75
2021/04/24 03:02:18;;;;;;;24.33;12.13;;;;;;;;;;5024776;28;38957;-75
2021/04/24 03:04:45;;;;;;;27.57;13.23;;;;;;;;;;5009733;28;39041;-75
2021/04/24 03:07:12;;;;;;;27.00;12.47;;;;;;;;;;5048048;28;38928;-75
2021/04/24 03:09:38;;;;;;;22.93;13.30;;;;;;;;;;5048970;28;39091;-75
2021/04/24 03:12:05;;;;;;;27.03;12.07;;;;;;;;;;5041755;28;38973;-75
2021/04/24 03:14:31;;;;;;;23.90;13.33;;;;;;;;;;5047293;28;39115;-75
2021/04/24 03:16:58;;;;;;;29.07;14.00;;;;;;;;;;5047584;28;38096;-75
2021/04/24 03:19:24;;;;;;;23.83;13.27;;;;;;;;;;5032250;28;40829;-75
2021/04/24 03:21:50;;;;;;;22.57;11.77;;;;;;;;;;5026922;28;38308;-75
2021/04/24 03:24:17;;;;;;;26.53;14.13;;;;;;;;;;5027892;28;39304;-75
2021/04/24 03:26:43;;;;;;;30.40;13.10;;;;;;;;;;5026967;28;38095;-74
2021/04/24 03:29:10;;;;;;;29.80;12.83;;;;;;;;;;5023635;28;39241;-75
2021/04/24 03:31:36;;;;;;;25.53;12.40;;;;;;;;;;5032719;28;40097;-75
2021/04/24 03:34:03;;;;;;;22.03;12.27;;;;;;;;;;5025866;28;37505;-75
2021/04/24 03:36:30;;;;;;;30.47;13.77;;;;;;;;;;5027915;28;37693;-74
2021/04/24 03:38:57;;;;;;;25.77;13.07;;;;;;;;;;5026235;28;39813;-74
2021/04/24 03:41:23;;;;;;;25.87;12.93;;;;;;;;;;5027082;28;40522;-75
2021/04/24 03:43:49;;;;;;;23.40;12.20;;;;;;;;;;5028783;28;39696;-75
2021/04/24 03:46:16;;;;;;;24.37;12.47;;;;;;;;;;5027926;28;37962;-74
2021/04/24 03:48:42;;;;;;;26.53;12.57;;;;;;;;;;5037419;28;37777;-74
2021/04/24 03:51:09;;;;;;;24.17;12.00;;;;;;;;;;5026678;28;39568;-75
2021/04/24 03:53:35;;;;;;;24.17;12.03;;;;;;;;;;5025668;28;39167;-74
2021/04/24 03:56:02;;;;;;;28.20;13.23;;;;;;;;;;5026355;28;37822;-74
2021/04/24 03:58:28;;;;;;;27.03;12.97;;;;;;;;;;5028910;28;49072;-75
2021/04/24 04:00:56;;;;;;;23.57;12.80;;;;;;;;;;5028280;28;39876;-74
2021/04/24 04:03:23;;;;;;;23.17;13.57;;;;;;;;;;5027886;28;38177;-75
2021/04/24 04:05:49;;;;;;;27.30;14.23;;;;;;;;;;5027214;28;37971;-75
2021/04/24 04:08:16;;;;;;;26.30;12.43;;;;;;;;;;5026702;28;39390;-75
2021/04/24 04:10:44;;;;;;;26.63;13.57;;;;;;;;;;5026930;28;40690;-75
2021/04/24 04:13:11;;;;;;;28.90;13.30;;;;;;;;;;5016553;28;40241;-74
2021/04/24 04:15:37;;;;;;;27.77;13.13;;;;;;;;;;5006989;28;38471;-75
2021/04/24 04:18:08;;;;;;;22.53;12.73;;;;;;;;;;5015727;28;39152;-74
2021/04/24 04:20:36;;;;;;;28.77;13.77;;;;;;;;;;5030021;28;39294;-74
2021/04/24 04:23:03;;;;;;;26.77;12.97;;;;;;;;;;5029063;28;39163;-74
2021/04/24 04:25:29;;;;;;;26.17;13.73;;;;;;;;;;5030815;28;36834;-75
2021/04/24 04:27:56;;;;;;;27.03;12.80;;;;;;;;;;5028316;28;38992;-75
2021/04/24 04:30:22;;;;;;;35.33;14.67;;;;;;;;;;5025711;28;40741;-74
2021/04/24 04:32:49;;;;;;;27.77;13.47;;;;;;;;;;5026470;28;39666;-75
2021/04/24 04:35:16;;;;;;;27.63;12.30;;;;;;;;;;5025393;28;37599;-75
2021/04/24 04:37:43;;;;;;;29.40;13.53;;;;;;;;;;5009418;28;40764;-75
2021/04/24 04:40:11;;;;;;;30.10;12.37;;;;;;;;;;5013499;28;39797;-75
2021/04/24 04:42:37;;;;;;;28.27;14.40;;;;;;;;;;5007102;28;39212;-74
2021/04/24 04:45:05;;;;;;;29.93;14.33;;;;;;;;;;5024575;28;38548;-74
2021/04/24 04:47:31;;;;;;;33.70;13.70;;;;;;;;;;5025549;28;38804;-75
2021/04/24 04:49:58;;;;;;;26.50;13.60;;;;;;;;;;5019765;28;39465;-75
2021/04/24 04:52:24;;;;;;;32.00;14.97;;;;;;;;;;5007140;28;39316;-74
2021/04/24 04:54:51;;;;;;;25.53;13.13;;;;;;;;;;5006066;28;35969;-74
2021/04/24 04:57:17;;;;;;;24.70;13.10;;;;;;;;;;5014571;28;39220;-74
2021/04/24 04:59:44;;;;;;;20.70;12.67;;;;;;;;;;5023586;28;40363;-75
2021/04/24 05:02:10;;;;;;;23.77;13.87;;;;;;;;;;5027690;28;38934;-75
2021/04/24 05:04:36;;;;;;;30.57;12.97;;;;;;;;;;5027141;28;37243;-75
2021/04/24 05:07:03;;;;;;;23.07;13.30;;;;;;;;;;5026488;28;38658;-75
2021/04/24 05:09:30;;;;;;;26.60;13.10;;;;;;;;;;5026211;28;40749;-74
2021/04/24 05:11:56;;;;;;;22.87;12.80;;;;;;;;;;5026955;28;39591;-75
2021/04/24 05:14:23;;;;;;;27.20;13.20;;;;;;;;;;5028510;28;37012;-75
2021/04/24 05:16:49;;;;;;;20.90;11.77;;;;;;;;;;5031703;28;39001;-76
2021/04/24 05:19:16;;;;;;;26.83;14.20;;;;;;;;;;5029363;28;39772;-75
2021/04/24 05:21:42;;;;;;;29.90;13.27;;;;;;;;;;5026181;28;39309;-75
2021/04/24 05:24:09;;;;;;;25.57;12.87;;;;;;;;;;5026082;28;38637;-75
2021/04/24 05:26:35;;;;;;;23.83;12.93;;;;;;;;;;5026097;28;40031;-74
2021/04/24 05:29:02;;;;;;;26.70;12.73;;;;;;;;;;5025876;28;39529;-75
2021/04/24 05:31:28;;;;;;;28.67;13.27;;;;;;;;;;5025214;28;37082;-74
2021/04/24 05:33:55;;;;;;;22.57;12.33;;;;;;;;;;5026278;28;37932;-75
2021/04/24 05:36:22;;;;;;;25.90;12.37;;;;;;;;;;5028603;28;39966;-74
2021/04/24 05:38:51;;;;;;;24.23;11.93;;;;;;;;;;5024738;28;40506;-75
2021/04/24 05:41:22;;;;;;;28.87;13.93;;;;;;;;;;5010185;28;39677;-75
2021/04/24 05:43:52;;;;;;;22.43;11.10;;;;;;;;;;5027030;28;37017;-74
2021/04/24 05:46:20;;;;;;;21.43;11.53;;;;;;;;;;5023836;28;40700;-75
2021/04/24 05:48:46;;;;;;;23.77;12.17;;;;;;;;;;5023881;28;38842;-75
2021/04/24 05:51:13;;;;;;;23.20;13.00;;;;;;;;;;5026460;28;40496;-75
2021/04/24 05:53:40;;;;;;;25.53;12.23;;;;;;;;;;5025223;28;37672;-75
2021/04/24 05:56:06;;;;;;;26.10;11.83;;;;;;;;;;5018558;28;37940;-74
2021/04/24 05:58:33;;;;;;;17.90;11.60;;;;;;;;;;5029758;28;39445;-75
2021/04/24 06:00:59;;;;;;;18.00;11.03;;;;;;;;;;5039253;28;38414;-74
2021/04/24 06:03:26;;;;;;;18.70;11.07;;;;;;;;;;5036491;28;37954;-75
2021/04/24 06:05:52;;;;;;;23.50;11.30;;;;;;;;;;5050053;28;39415;-74
2021/04/24 06:08:19;;;;;;;20.07;10.60;;;;;;;;;;5042450;28;39348;-75
2021/04/24 06:10:45;;;;;;;21.20;11.07;;;;;;;;;;5030497;28;39753;-74
2021/04/24 06:13:11;;;;;;;23.20;11.80;;;;;;;;;;5029185;28;37653;-74
2021/04/24 06:15:38;;;;;;;20.57;11.00;;;;;;;;;;5029087;28;40628;-73
2021/04/24 06:18:05;;;;;;;19.57;10.17;;;;;;;;;;5030126;28;40728;-76
2021/04/24 06:20:31;;;;;;;20.70;10.93;;;;;;;;;;5030014;28;40234;-75
2021/04/24 06:22:58;;;;;;;17.90;10.73;;;;;;;;;;5034829;28;38038;-74
2021/04/24 06:25:24;;;;;;;18.70;10.30;;;;;;;;;;5034970;28;39635;-74
2021/04/24 06:27:51;;;;;;;18.93;9.80;;;;;;;;;;5036987;28;38799;-76
2021/04/24 06:30:19;;;;;;;19.70;11.27;;;;;;;;;;5046596;28;38714;-75
2021/04/24 06:32:46;;;;;;;16.80;10.20;;;;;;;;;;5035071;28;35695;-76
2021/04/24 06:35:13;;;;;;;15.93;9.33;;;;;;;;;;5032643;28;39520;-74
2021/04/24 06:37:39;;;;;;;20.27;10.57;;;;;;;;;;5036677;28;39815;-73
2021/04/24 06:40:07;;;;;;;17.43;9.37;;;;;;;;;;5037432;28;39425;-74
2021/04/24 06:42:33;;;;;;;16.40;9.13;;;;;;;;;;5029853;28;36580;-73
2021/04/24 06:45:00;;;;;;;15.67;9.17;;;;;;;;;;5035948;28;39068;-75
2021/04/24 06:47:26;;;;;;;13.30;8.53;;;;;;;;;;5033507;28;41331;-74
2021/04/24 06:49:53;;;;;;;16.10;9.23;;;;;;;;;;5034644;28;38397;-75
2021/04/24 06:52:19;;;;;;;15.50;9.30;;;;;;;;;;5030969;28;39001;-75
2021/04/24 06:54:46;;;;;;;15.77;8.03;;;;;;;;;;5046776;28;39511;-75
2021/04/24 06:57:12;;;;;;;15.90;8.20;;;;;;;;;;5053996;28;39358;-75
2021/04/24 06:59:40;;;;;;;17.83;8.13;;;;;;;;;;5047257;28;37443;-75
2021/04/24 07:02:09;;;;;;;15.47;9.90;;;;;;;;;;5050058;28;37669;-75
2021/04/24 07:04:35;;;;;;;17.63;8.00;;;;;;;;;;5033079;28;37952;-75
2021/04/24 07:07:02;;;;;;;12.13;8.20;;;;;;;;;;5034558;28;39159;-75
2021/04/24 07:09:28;;;;;;;8.87;6.13;;;;;;;;;;5033115;28;39313;-74
2021/04/24 07:11:54;;;;;;;14.07;7.33;;;;;;;;;;5027836;28;37591;-75
2021/04/24 07:14:21;;;;;;;14.87;7.03;;;;;;;;;;5034233;28;40048;-75
2021/04/24 07:16:47;;;;;;;17.67;6.70;;;;;;;;;;5024982;28;39517;-75
2021/04/24 07:19:14;;;;;;;12.40;6.67;;;;;;;;;;5038844;28;38426;-75
2021/04/24 07:21:40;;;;;;;11.47;6.57;;;;;;;;;;5033551;28;35697;-75
2021/04/24 07:24:07;;;;;;;11.73;5.85;;;;;;;;;;5032451;28;40022;-75
2021/04/24 07:26:33;;;;;;;10.60;6.47;;;;;;;;;;5036190;28;39564;-75
2021/04/24 07:29:00;;;;;;;12.10;5.97;;;;;;;;;;5035118;28;40162;-75
2021/04/24 07:31:26;;;;;;;8.00;5.47;;;;;;;;;;5042794;28;38750;-75
2021/04/24 07:33:52;;;;;;;8.00;5.10;;;;;;;;;;5042412;28;37451;-75
2021/04/24 07:36:19;;;;;;;11.85;5.80;;;;;;;;;;5031812;28;38770;-75
2021/04/24 07:38:46;;;;;;;10.52;6.03;;;;;;;;;;5031854;28;39334;-74
2021/04/24 07:41:13;;;;;;;10.13;5.65;;;;;;;;;;5025449;28;38116;-74
2021/04/24 07:43:39;;;;;;;8.82;5.25;;;;;;;;;;5013434;28;38707;-75
2021/04/24 07:46:05;;;;;;;11.90;5.20;;;;;;;;;;5013470;28;39765;-74
2021/04/24 07:48:32;;;;;;;7.13;4.93;;;;;;;;;;5025202;28;38316;-75
2021/04/24 07:50:58;;;;;;;15.80;5.97;;;;;;;;;;5026329;28;37160;-74
2021/04/24 07:53:25;;;;;;;6.82;5.18;;;;;;;;;;5026112;28;39981;-75
2021/04/24 07:55:51;;;;;;;7.88;5.35;;;;;;;;;;5026544;28;39373;-75
2021/04/24 07:58:18;;;;;;;9.77;5.45;;;;;;;;;;5026406;28;38525;-75
2021/04/24 08:00:45;;;;;;;9.82;6.03;;;;;;;;;;5027646;28;37658;-75
2021/04/24 08:03:11;;;;;;;8.93;5.45;;;;;;;;;;5023101;28;40375;-75
2021/04/24 08:05:38;;;;;;;9.32;5.80;;;;;;;;;;5013322;28;39709;-75
2021/04/24 08:08:04;;;;;;;10.32;6.03;;;;;;;;;;5027603;28;38357;-76
2021/04/24 08:10:31;;;;;;;8.70;5.18;;;;;;;;;;5028267;28;37121;-75
2021/04/24 08:12:59;;;;;;;7.25;4.70;;;;;;;;;;5030753;28;38591;-75
2021/04/24 08:15:28;;;;;;;9.32;5.55;;;;;;;;;;5030384;28;37956;-75
2021/04/24 08:17:55;;;;;;;11.43;5.68;;;;;;;;;;5007358;28;39031;-76
2021/04/24 08:20:21;;;;;;;8.55;5.75;;;;;;;;;;5013814;28;37654;-75
2021/04/24 08:22:48;;;;;;;13.65;5.03;;;;;;;;;;5028588;28;38920;-75
2021/04/24 08:25:15;;;;;;;8.20;4.97;;;;;;;;;;5026278;28;40337;-75
2021/04/24 08:27:41;;;;;;;11.32;5.05;;;;;;;;;;5026134;28;39586;-75
2021/04/24 08:30:09;;;;;;;7.82;5.22;;;;;;;;;;5027000;28;37553;-75
2021/04/24 08:32:36;;;;;;;7.28;5.10;;;;;;;;;;5028736;28;40010;-75
2021/04/24 08:35:03;;;;;;;7.28;5.22;;;;;;;;;;5025308;28;40315;-76
2021/04/24 08:37:30;;;;;;;9.23;4.65;;;;;;;;;;5024756;28;39421;-75
2021/04/24 08:39:56;;;;;;;8.57;4.90;;;;;;;;;;5046787;28;36978;-75
2021/04/24 08:42:23;;;;;;;6.55;4.35;;;;;;;;;;5031989;28;41246;-75
2021/04/24 08:44:50;;;;;;;8.38;4.82;;;;;;;;;;5028888;28;38457;-75
2021/04/24 08:47:17;;;;;;;14.73;5.68;;;;;;;;;;5027699;28;38661;-75
2021/04/24 08:49:44;;;;;;;8.07;5.10;;;;;;;;;;5027533;28;37713;-74
2021/04/24 08:52:10;;;;;;;9.45;5.72;;;;;;;;;;5026336;28;40557;-74
2021/04/24 08:54:37;;;;;;;7.15;5.38;;;;;;;;;;5027997;28;39992;-74
2021/04/24 08:57:03;;;;;;;8.27;5.10;;;;;;;;;;5027215;28;38281;-74
2021/04/24 08:59:29;;;;;;;8.30;4.95;;;;;;;;;;5030963;28;35349;-77
2021/04/24 09:01:56;;;;;;;6.15;4.88;;;;;;;;;;5030719;28;39365;-76
2021/04/24 09:04:22;;;;;;;7.10;4.75;;;;;;;;;;5030847;28;38622;-76
2021/04/24 09:06:49;;;;;;;7.05;5.13;;;;;;;;;;5029207;28;39608;-75
2021/04/24 09:09:15;;;;;;;7.88;5.25;;;;;;;;;;5027366;28;35750;-75
2021/04/24 09:11:46;;;;;;;6.10;3.97;;;;;;;;;;5012580;28;38512;-75
2021/04/24 09:14:13;;;;;;;8.75;5.20;;;;;;;;;;5007102;28;37987;-75
2021/04/24 09:16:40;;;;;;;6.40;4.47;;;;;;;;;;5023297;28;38642;-75
2021/04/24 09:19:25;;;;;;;9.13;5.28;;;;;;;;;;5028245;28;38131;-75
2021/04/24 09:22:15;;;;;;;9.35;5.47;;;;;;;;;;5007410;28;39486;-75
2021/04/24 09:24:43;;;;;;;9.45;5.05;;;;;;;;;;5002149;28;47256;-76
2021/04/24 09:27:10;;;;;;;8.20;5.72;;;;;;;;;;5034886;28;38673;-77
2021/04/24 09:29:36;;;;;;;7.10;4.10;;;;;;;;;;5029152;28;37372;-75
2021/04/24 09:32:13;;;;;;;9.10;4.03;;;;;;;;;;5029693;28;38571;-75
2021/04/24 09:34:39;;;;;;;7.15;4.63;;;;;;;;;;5034419;28;37935;-75
2021/04/24 09:37:13;;;;;;;5.93;4.90;;;;;;;;;;5050102;28;38648;-75
2021/04/24 09:39:53;;;;;;;8.60;4.43;;;;;;;;;;5049549;28;37065;-75
2021/04/24 09:42:38;;;;;;;7.00;3.88;;;;;;;;;;5040118;28;39768;-75
2021/04/24 09:45:10;;;;;;;5.80;4.10;;;;;;;;;;5023235;28;37892;-75
2021/04/24 09:47:41;;;;;;;5.55;3.30;;;;;;;;;;5028955;28;39649;-75
2021/04/24 09:50:11;;;;;;;6.28;3.67;;;;;;;;;;5030604;28;37975;-75
2021/04/24 09:52:38;;;;;;;7.78;3.85;;;;;;;;;;5029979;28;39776;-75
2021/04/24 09:55:05;;;;;;;7.28;4.05;;;;;;;;;;5028796;28;39876;-75
2021/04/24 09:57:34;;;;;;;6.65;4.13;;;;;;;;;;5030156;28;48872;-75
2021/04/24 10:00:02;;;;;;;7.05;3.75;;;;;;;;;;5028678;28;37345;-76
2021/04/24 10:02:28;;;;;;;8.73;3.33;;;;;;;;;;5028420;28;47220;-76
2021/04/24 10:05:08;;;;;;;10.18;4.63;;;;;;;;;;5030698;28;39222;-75
2021/04/24 10:07:35;;;;;;;6.03;3.53;;;;;;;;;;5027067;28;47404;-75
2021/04/24 10:10:02;;;;;;;6.72;4.47;;;;;;;;;;5021127;28;37219;-76
2021/04/24 10:12:28;;;;;;;7.15;4.30;;;;;;;;;;5026881;28;46629;-75
2021/04/24 10:14:56;;;;;;;6.10;4.30;;;;;;;;;;5029883;28;38881;-75
2021/04/24 10:17:22;;;;;;;7.65;4.15;;;;;;;;;;5023554;28;39379;-75
2021/04/24 10:19:50;;;;;;;5.07;3.63;;;;;;;;;;5021570;28;35909;-75
2021/04/24 10:22:18;;;;;;;5.93;3.33;;;;;;;;;;5048673;28;40512;-75
2021/04/24 10:24:44;;;;;;;4.53;2.88;;;;;;;;;;5032911;28;41476;-75
2021/04/24 10:27:12;;;;;;;4.43;3.10;;;;;;;;;;5033261;28;38795;-75
2021/04/24 10:29:39;;;;;;;5.93;3.50;;;;;;;;;;5044431;28;37176;-75
2021/04/24 10:32:06;;;;;;;5.97;3.33;;;;;;;;;;5037335;28;39655;-75
2021/04/24 10:34:32;;;;;;;4.85;3.08;;;;;;;;;;5027776;28;40350;-75
2021/04/24 10:36:58;;;;;;;4.13;2.92;;;;;;;;;;5027882;28;39152;-74
2021/04/24 10:39:27;;;;;;;4.30;3.13;;;;;;;;;;5037538;28;36964;-75
2021/04/24 10:42:00;;;;;;;3.58;2.42;;;;;;;;;;5025807;28;40824;-76
2021/04/24 10:44:43;;;;;;;6.70;2.90;;;;;;;;;;5024311;28;41131;-76
2021/04/24 10:47:09;;;;;;;6.65;3.00;;;;;;;;;;5008461;28;39112;-75
2021/04/24 10:49:36;;;;;;;6.63;3.65;;;;;;;;;;5007391;28;39371;-75
2021/04/24 10:52:21;;;;;;;6.10;2.42;;;;;;;;;;5009683;28;40310;-76
2021/04/24 10:55:05;;;;;;;7.10;2.65;;;;;;;;;;5010873;28;38709;-75
2021/04/24 10:57:38;;;;;;;3.90;2.92;;;;;;;;;;5031225;28;46644;-75
2021/04/24 11:00:10;;;;;;;2.80;2.13;;;;;;;;;;5029355;28;36733;-75
2021/04/24 11:02:46;;;;;;;6.53;3.30;;;;;;;;;;5031171;28;38686;-75
2021/04/24 11:05:40;;;;;;;3.35;2.60;;;;;;;;;;5027915;28;40547;-76
2021/04/24 11:08:10;;;;;;;7.15;3.55;;;;;;;;;;5031404;28;38872;-76
2021/04/24 11:10:47;;;;;;;3.78;2.35;;;;;;;;;;5050489;28;36128;-74
2021/04/24 11:13:14;;;;;;;6.18;2.55;;;;;;;;;;5033406;28;40185;-74
2021/04/24 11:15:41;;;;;;;4.88;2.63;;;;;;;;;;5030733;28;38149;-74
2021/04/24 11:18:10;;;;;;;3.35;2.25;;;;;;;;;;5047753;28;37545;-74
2021/04/24 11:20:56;;;;;;;5.85;2.88;;;;;;;;;;5017872;28;35848;-74
2021/04/24 11:23:31;;;;;;;5.13;3.33;;;;;;;;;;5021078;28;37741;-75
2021/04/24 11:25:58;;;;;;;4.63;2.92;;;;;;;;;;5025419;28;37467;-76
2021/04/24 11:28:24;;;;;;;5.00;3.13;;;;;;;;;;5034627;28;38783;-75
2021/04/24 11:30:51;;;;;;;4.22;2.95;;;;;;;;;;5033809;28;36937;-74
2021/04/24 11:33:36;;;;;;;3.35;2.42;;;;;;;;;;5027404;28;38145;-75
2021/04/24 11:41:34;;;;;;;3.10;1.80;;;;;;;;;;5039227;28;37808;-75
2021/04/24 11:44:21;;;;;;;2.17;1.65;;;;;;;;;;5043033;28;37701;-74
2021/04/24 11:46:49;;;;;;;2.67;1.90;;;;;;;;;;5036130;28;46959;-74
2021/04/24 11:49:16;;;;;;;3.67;1.80;;;;;;;;;;5022886;28;37248;-75
2021/04/24 11:51:47;;;;;;;3.00;1.80;;;;;;;;;;5026448;28;35904;-75
2021/04/24 11:54:15;;;;;;;2.67;1.90;;;;;;;;;;5015474;28;38608;-76
2021/04/24 11:56:46;;;;;;;3.17;2.03;;;;;;;;;;5007668;28;39289;-75
2021/04/24 11:59:12;;;;;;;6.13;2.10;;;;;;;;;;5021299;28;37569;-75
2021/04/24 12:01:39;;;;;;;4.65;1.85;;;;;;;;;;5035910;28;36992;-75
2021/04/24 12:04:06;;;;;;;4.28;1.90;;;;;;;;;;5032550;28;39861;-75
2021/04/24 12:06:33;;;;;;;6.05;1.67;;;;;;;;;;5030148;28;39325;-75
2021/04/24 12:09:01;;;;;;;2.97;2.00;;;;;;;;;;5028526;28;38938;-74
2021/04/24 12:11:27;;;;;;;4.18;1.90;;;;;;;;;;5039382;28;47521;-74
2021/04/24 12:13:53;;;;;;;6.10;2.30;;;;;;;;;;5027185;28;38954;-74
2021/04/24 12:16:20;;;;;;;4.03;1.70;;;;;;;;;;5027525;28;38839;-74
2021/04/24 12:18:46;;;;;;;3.33;1.75;;;;;;;;;;5027639;28;39510;-74
2021/04/24 12:21:24;;;;;;;4.30;1.40;;;;;;;;;;5035487;28;36941;-74
2021/04/24 12:23:50;;;;;;;1.88;1.15;;;;;;;;;;5042331;28;38622;-74
2021/04/24 12:26:16;;;;;;;3.80;1.42;;;;;;;;;;5026454;28;39238;-73
2021/04/24 12:28:45;;;;;;;4.28;1.60;;;;;;;;;;5027816;28;38805;-74
2021/04/24 12:31:12;;;;;;;3.25;2.20;;;;;;;;;;5038766;28;38268;-75
2021/04/24 12:33:38;;;;;;;3.17;2.30;;;;;;;;;;5038791;28;38984;-74
2021/04/24 12:36:05;;;;;;;5.97;2.22;;;;;;;;;;5028167;28;38486;-75
2021/04/24 12:38:32;;;;;;;2.75;1.52;;;;;;;;;;5035371;28;39683;-75
2021/04/24 12:40:59;;;;;;;1.48;1.13;;;;;;;;;;5026985;28;37138;-75
2021/04/24 12:43:27;;;;;;;1.73;1.40;;;;;;;;;;5025344;28;39584;-74
2021/04/24 12:46:03;;;;;;;2.63;1.85;;;;;;;;;;5028010;28;38637;-74
2021/04/24 12:48:34;;;;;;;3.95;1.90;;;;;;;;;;5024227;28;48341;-74
2021/04/24 12:51:01;;;;;;;2.80;2.20;;;;;;;;;;5025128;28;38149;-75
2021/04/24 12:53:41;;;;;;;6.78;2.30;;;;;;;;;;5027467;28;47355;-75
2021/04/24 12:56:14;;;;;;;4.22;2.30;;;;;;;;;;5026675;28;39645;-75
2021/04/24 12:58:42;;;;;;;3.45;2.70;;;;;;;;;;5029524;28;39352;-75
2021/04/24 13:01:15;;;;;;;7.28;3.95;;;;;;;;;;5028276;28;36906;-75
2021/04/24 13:03:46;;;;;;;6.45;4.75;;;;;;;;;;5031194;28;40269;-74
2021/04/24 13:06:17;;;;;;;5.63;3.03;;;;;;;;;;5024595;28;41098;-74
2021/04/24 13:08:44;;;;;;;13.50;3.33;;;;;;;;;;5026598;28;38687;-75
2021/04/24 13:11:14;;;;;;;6.63;2.65;;;;;;;;;;5023527;28;35934;-74
2021/04/24 13:13:42;;;;;;;3.72;2.72;;;;;;;;;;5027374;28;39036;-75
2021/04/24 13:16:09;;;;;;;6.35;3.33;;;;;;;;;;5026996;28;39836;-75
2021/04/24 13:18:43;;;;;;;4.63;2.90;;;;;;;;;;5009393;28;38775;-76
2021/04/24 13:21:39;;;;;;;4.30;2.65;;;;;;;;;;5005831;28;37650;-75
2021/04/24 13:24:16;;;;;;;5.85;3.17;;;;;;;;;;5003539;28;38846;-75
2021/04/24 13:26:51;;;;;;;4.20;2.53;;;;;;;;;;5024144;28;39664;-75
2021/04/24 13:29:24;;;;;;;5.35;3.92;;;;;;;;;;5007261;28;38848;-74
2021/04/24 13:31:59;;;;;;;6.00;3.10;;;;;;;;;;5024185;28;35717;-75
2021/04/24 13:34:26;;;;;;;4.55;2.92;;;;;;;;;;5043079;28;39330;-75
2021/04/24 13:36:56;;;;;;;3.33;2.25;;;;;;;;;;5046481;28;39289;-74
2021/04/24 13:39:23;;;;;;;4.82;2.88;;;;;;;;;;5047922;28;39596;-75
2021/04/24 13:41:50;;;;;;;5.85;3.42;;;;;;;;;;5037643;28;36966;-75
2021/04/24 13:44:17;;;;;;;5.35;3.45;;;;;;;;;;5025746;28;39302;-75
2021/04/24 13:46:50;;;;;;;6.75;3.28;;;;;;;;;;5032595;28;39064;-75
2021/04/24 13:49:18;;;;;;;5.00;3.30;;;;;;;;;;5015812;28;38485;-75
2021/04/24 13:51:45;;;;;;;6.05;3.25;;;;;;;;;;5026692;28;36870;-75
2021/04/24 13:54:12;;;;;;;6.88;3.97;;;;;;;;;;5024744;28;38413;-75
2021/04/24 13:56:38;;;;;;;5.53;4.07;;;;;;;;;;5006988;28;40415;-75
2021/04/24 13:59:08;;;;;;;6.60;3.92;;;;;;;;;;5013468;28;39209;-75
2021/04/24 14:01:35;;;;;;;6.47;3.70;;;;;;;;;;5025581;28;38361;-75
2021/04/24 14:04:01;;;;;;;5.85;3.72;;;;;;;;;;5011411;28;40741;-75
2021/04/24 14:06:28;;;;;;;6.95;3.78;;;;;;;;;;5027359;28;48596;-75
2021/04/24 14:08:54;;;;;;;5.97;3.63;;;;;;;;;;5016726;28;38912;-75
2021/04/24 14:11:20;;;;;;;7.22;3.78;;;;;;;;;;5007278;28;36950;-75
2021/04/24 14:13:47;;;;;;;8.02;5.25;;;;;;;;;;5023551;28;39680;-75
2021/04/24 14:16:13;;;;;;;7.22;5.25;;;;;;;;;;5029311;28;39612;-75
2021/04/24 14:18:40;;;;;;;7.95;5.00;;;;;;;;;;5018953;28;39112;-75
2021/04/24 14:21:07;;;;;;;11.40;5.28;;;;;;;;;;5013181;28;37900;-75
2021/04/24 14:23:34;;;;;;;9.07;5.28;;;;;;;;;;5030561;28;38898;-75
2021/04/24 14:26:00;;;;;;;11.27;5.15;;;;;;;;;;5028460;28;39275;-76
2021/04/24 14:28:27;;;;;;;8.27;4.93;;;;;;;;;;5028525;28;40576;-75
2021/04/24 14:30:54;;;;;;;10.73;5.43;;;;;;;;;;5030263;28;36996;-75
2021/04/24 14:33:21;;;;;;;8.90;5.32;;;;;;;;;;5035686;28;38832;-75
2021/04/24 14:35:48;;;;;;;12.60;6.03;;;;;;;;;;5029527;28;39117;-74
2021/04/24 14:38:15;;;;;;;8.70;5.55;;;;;;;;;;5032641;28;38180;-75
2021/04/24 14:40:41;;;;;;;16.45;7.65;;;;;;;;;;5030483;28;37519;-75